sensor_id;sensor_type;location;lat;lon;timestamp;temperature;humidity
59146;DHT22;44928;53.074;6.646;2022-07-06T00:01:46;14.10;99.90
59146;DHT22;44928;53.074;6.646;2022-07-06T00:04:12;14.00;99.90
59146;DHT22;44928;53.074;6.646;2022-07-06T00:06:38;14.00;99.90
59146;DHT22;44928;53.074;6.646;2022-07-06T00:09:05;14.00;99.90
59146;DHT22;44928;53.074;6.646;2022-07-06T00:11:31;14.10;99.90
59146;DHT22;44928;53.074;6.646;2022-07-06T00:13:57;14.00;99.90
59146;DHT22;44928;53.074;6.646;2022-07-06T00:16:23;14.10;99.90
59146;DHT22;44928;53.074;6.646;2022-07-06T00:18:49;14.10;99.90
59146;DHT22;44928;53.074;6.646;2022-07-06T00:21:15;14.10;99.90
59146;DHT22;44928;53.074;6.646;2022-07-06T00:23:41;14.10;99.90
59146;DHT22;44928;53.074;6.646;2022-07-06T00:26:07;14.10;99.90
59146;DHT22;44928;53.074;6.646;2022-07-06T00:28:33;14.10;99.90
59146;DHT22;44928;53.074;6.646;2022-07-06T00:30:59;14.10;99.90
59146;DHT22;44928;53.074;6.646;2022-07-06T00:33:24;14.10;99.90
59146;DHT22;44928;53.074;6.646;2022-07-06T00:35:50;14.10;99.90
59146;DHT22;44928;53.074;6.646;2022-07-06T00:38:16;14.10;99.90
59146;DHT22;44928;53.074;6.646;2022-07-06T00:40:42;14.20;99.90
59146;DHT22;44928;53.074;6.646;2022-07-06T00:43:08;14.10;99.90
59146;DHT22;44928;53.074;6.646;2022-07-06T00:45:33;14.10;99.90
59146;DHT22;44928;53.074;6.646;2022-07-06T00:47:59;14.10;99.90
59146;DHT22;44928;53.074;6.646;2022-07-06T00:50:25;14.10;99.90
59146;DHT22;44928;53.074;6.646;2022-07-06T00:52:56;14.10;99.90
59146;DHT22;44928;53.074;6.646;2022-07-06T00:55:24;14.10;99.90
59146;DHT22;44928;53.074;6.646;2022-07-06T00:57:50;14.10;99.90
59146;DHT22;44928;53.074;6.646;2022-07-06T01:00:19;14.10;99.90
59146;DHT22;44928;53.074;6.646;2022-07-06T01:02:45;14.00;99.90
59146;DHT22;44928;53.074;6.646;2022-07-06T01:05:13;14.00;99.90
59146;DHT22;44928;53.074;6.646;2022-07-06T01:07:40;14.00;99.90
59146;DHT22;44928;53.074;6.646;2022-07-06T01:10:07;14.00;99.90
59146;DHT22;44928;53.074;6.646;2022-07-06T01:12:35;14.00;99.90
59146;DHT22;44928;53.074;6.646;2022-07-06T01:15:03;14.00;99.90
59146;DHT22;44928;53.074;6.646;2022-07-06T01:17:30;14.00;99.90
59146;DHT22;44928;53.074;6.646;2022-07-06T01:19:56;14.00;99.90
59146;DHT22;44928;53.074;6.646;2022-07-06T01:22:22;14.00;99.90
59146;DHT22;44928;53.074;6.646;2022-07-06T01:24:48;14.00;99.90
59146;DHT22;44928;53.074;6.646;2022-07-06T01:27:13;14.00;99.90
59146;DHT22;44928;53.074;6.646;2022-07-06T01:29:39;13.90;99.90
59146;DHT22;44928;53.074;6.646;2022-07-06T01:32:05;13.90;99.90
59146;DHT22;44928;53.074;6.646;2022-07-06T01:34:31;13.80;99.90
59146;DHT22;44928;53.074;6.646;2022-07-06T01:36:57;13.80;99.90
59146;DHT22;44928;53.074;6.646;2022-07-06T01:39:23;13.80;99.90
59146;DHT22;44928;53.074;6.646;2022-07-06T01:41:48;13.80;99.90
59146;DHT22;44928;53.074;6.646;2022-07-06T01:44:14;13.80;99.90
59146;DHT22;44928;53.074;6.646;2022-07-06T01:46:40;13.90;99.90
59146;DHT22;44928;53.074;6.646;2022-07-06T01:49:06;13.90;99.90
59146;DHT22;44928;53.074;6.646;2022-07-06T01:51:32;13.90;99.90
59146;DHT22;44928;53.074;6.646;2022-07-06T01:53:58;13.90;99.90
59146;DHT22;44928;53.074;6.646;2022-07-06T01:56:24;13.90;99.90
59146;DHT22;44928;53.074;6.646;2022-07-06T01:58:50;13.90;99.90
59146;DHT22;44928;53.074;6.646;2022-07-06T02:01:18;13.90;99.90
59146;DHT22;44928;53.074;6.646;2022-07-06T02:03:44;13.90;99.90
59146;DHT22;44928;53.074;6.646;2022-07-06T02:06:11;13.90;99.90
59146;DHT22;44928;53.074;6.646;2022-07-06T02:08:40;13.90;99.90
59146;DHT22;44928;53.074;6.646;2022-07-06T02:11:07;13.80;99.90
59146;DHT22;44928;53.074;6.646;2022-07-06T02:13:34;13.80;99.90
59146;DHT22;44928;53.074;6.646;2022-07-06T02:16:01;13.80;99.90
59146;DHT22;44928;53.074;6.646;2022-07-06T02:18:27;13.80;99.90
59146;DHT22;44928;53.074;6.646;2022-07-06T02:20:52;13.80;99.90
59146;DHT22;44928;53.074;6.646;2022-07-06T02:23:18;13.80;99.90
59146;DHT22;44928;53.074;6.646;2022-07-06T02:25:44;13.80;99.90
59146;DHT22;44928;53.074;6.646;2022-07-06T02:28:11;13.80;99.90
59146;DHT22;44928;53.074;6.646;2022-07-06T02:30:36;13.80;99.90
59146;DHT22;44928;53.074;6.646;2022-07-06T02:33:03;13.80;99.90
59146;DHT22;44928;53.074;6.646;2022-07-06T02:35:28;13.80;99.90
59146;DHT22;44928;53.074;6.646;2022-07-06T02:37:54;13.80;99.90
59146;DHT22;44928;53.074;6.646;2022-07-06T02:40:20;13.80;99.90
59146;DHT22;44928;53.074;6.646;2022-07-06T02:42:46;13.80;99.90
59146;DHT22;44928;53.074;6.646;2022-07-06T02:45:12;13.80;99.90
59146;DHT22;44928;53.074;6.646;2022-07-06T02:47:38;13.80;99.90
59146;DHT22;44928;53.074;6.646;2022-07-06T02:50:04;13.80;99.90
59146;DHT22;44928;53.074;6.646;2022-07-06T02:52:30;13.80;99.90
59146;DHT22;44928;53.074;6.646;2022-07-06T02:54:56;13.90;99.90
59146;DHT22;44928;53.074;6.646;2022-07-06T02:57:22;13.90;99.90
59146;DHT22;44928;53.074;6.646;2022-07-06T02:59:47;13.90;99.90
59146;DHT22;44928;53.074;6.646;2022-07-06T03:02:16;13.80;99.90
59146;DHT22;44928;53.074;6.646;2022-07-06T03:04:42;13.80;99.90
59146;DHT22;44928;53.074;6.646;2022-07-06T03:07:07;13.80;99.90
59146;DHT22;44928;53.074;6.646;2022-07-06T03:09:33;13.80;99.90
59146;DHT22;44928;53.074;6.646;2022-07-06T03:11:59;13.80;99.90
59146;DHT22;44928;53.074;6.646;2022-07-06T03:14:25;13.80;99.90
59146;DHT22;44928;53.074;6.646;2022-07-06T03:16:51;13.80;99.90
59146;DHT22;44928;53.074;6.646;2022-07-06T03:19:17;13.80;99.90
59146;DHT22;44928;53.074;6.646;2022-07-06T03:21:43;13.70;99.90
59146;DHT22;44928;53.074;6.646;2022-07-06T03:24:08;13.70;99.90
59146;DHT22;44928;53.074;6.646;2022-07-06T03:26:34;13.70;99.90
59146;DHT22;44928;53.074;6.646;2022-07-06T03:29:00;13.80;99.90
59146;DHT22;44928;53.074;6.646;2022-07-06T03:31:25;13.80;99.90
59146;DHT22;44928;53.074;6.646;2022-07-06T03:33:51;13.70;99.90
59146;DHT22;44928;53.074;6.646;2022-07-06T03:36:17;13.80;99.90
59146;DHT22;44928;53.074;6.646;2022-07-06T03:38:43;13.70;99.90
59146;DHT22;44928;53.074;6.646;2022-07-06T03:41:09;13.70;99.90
59146;DHT22;44928;53.074;6.646;2022-07-06T03:43:34;13.70;99.90
59146;DHT22;44928;53.074;6.646;2022-07-06T03:46:00;13.70;99.90
59146;DHT22;44928;53.074;6.646;2022-07-06T03:48:26;13.60;99.90
59146;DHT22;44928;53.074;6.646;2022-07-06T03:50:52;13.60;99.90
59146;DHT22;44928;53.074;6.646;2022-07-06T03:53:18;13.60;99.90
59146;DHT22;44928;53.074;6.646;2022-07-06T03:55:44;13.60;99.90
59146;DHT22;44928;53.074;6.646;2022-07-06T03:58:29;13.60;99.90
59146;DHT22;44928;53.074;6.646;2022-07-06T04:00:55;13.60;99.90
59146;DHT22;44928;53.074;6.646;2022-07-06T04:03:21;13.60;99.90
59146;DHT22;44928;53.074;6.646;2022-07-06T04:05:46;13.50;99.90
59146;DHT22;44928;53.074;6.646;2022-07-06T04:08:12;13.50;99.90
59146;DHT22;44928;53.074;6.646;2022-07-06T04:10:38;13.50;99.90
59146;DHT22;44928;53.074;6.646;2022-07-06T04:13:04;13.40;99.90
59146;DHT22;44928;53.074;6.646;2022-07-06T04:15:29;13.40;99.90
59146;DHT22;44928;53.074;6.646;2022-07-06T04:17:55;13.40;99.90
59146;DHT22;44928;53.074;6.646;2022-07-06T04:20:23;13.40;99.90
59146;DHT22;44928;53.074;6.646;2022-07-06T04:22:49;13.40;99.90
59146;DHT22;44928;53.074;6.646;2022-07-06T04:25:15;13.30;99.90
59146;DHT22;44928;53.074;6.646;2022-07-06T04:27:41;13.30;99.90
59146;DHT22;44928;53.074;6.646;2022-07-06T04:30:07;13.30;99.90
59146;DHT22;44928;53.074;6.646;2022-07-06T04:32:34;13.40;99.90
59146;DHT22;44928;53.074;6.646;2022-07-06T04:35:00;13.40;99.90
59146;DHT22;44928;53.074;6.646;2022-07-06T04:37:26;13.40;99.90
59146;DHT22;44928;53.074;6.646;2022-07-06T04:39:52;13.40;99.90
59146;DHT22;44928;53.074;6.646;2022-07-06T04:42:18;13.40;99.90
59146;DHT22;44928;53.074;6.646;2022-07-06T04:44:44;13.40;99.90
59146;DHT22;44928;53.074;6.646;2022-07-06T04:47:11;13.40;99.90
59146;DHT22;44928;53.074;6.646;2022-07-06T04:49:37;13.50;99.90
59146;DHT22;44928;53.074;6.646;2022-07-06T04:52:03;13.50;99.90
59146;DHT22;44928;53.074;6.646;2022-07-06T04:54:29;13.50;99.90
59146;DHT22;44928;53.074;6.646;2022-07-06T04:56:55;13.60;99.90
59146;DHT22;44928;53.074;6.646;2022-07-06T04:59:21;13.60;99.90
59146;DHT22;44928;53.074;6.646;2022-07-06T05:01:46;13.70;99.90
59146;DHT22;44928;53.074;6.646;2022-07-06T05:04:12;13.70;99.90
59146;DHT22;44928;53.074;6.646;2022-07-06T05:06:39;13.70;99.90
59146;DHT22;44928;53.074;6.646;2022-07-06T05:09:05;13.70;99.90
59146;DHT22;44928;53.074;6.646;2022-07-06T05:11:31;13.70;99.90
59146;DHT22;44928;53.074;6.646;2022-07-06T05:13:57;13.80;99.90
59146;DHT22;44928;53.074;6.646;2022-07-06T05:16:23;13.80;99.90
59146;DHT22;44928;53.074;6.646;2022-07-06T05:18:48;13.80;99.90
59146;DHT22;44928;53.074;6.646;2022-07-06T05:21:14;13.80;99.90
59146;DHT22;44928;53.074;6.646;2022-07-06T05:23:40;13.80;99.90
59146;DHT22;44928;53.074;6.646;2022-07-06T05:26:06;13.80;99.90
59146;DHT22;44928;53.074;6.646;2022-07-06T05:28:32;13.80;99.90
59146;DHT22;44928;53.074;6.646;2022-07-06T05:30:59;13.80;99.90
59146;DHT22;44928;53.074;6.646;2022-07-06T05:33:24;13.80;99.90
59146;DHT22;44928;53.074;6.646;2022-07-06T05:35:50;13.80;99.90
59146;DHT22;44928;53.074;6.646;2022-07-06T05:38:16;13.90;99.90
59146;DHT22;44928;53.074;6.646;2022-07-06T05:40:42;13.80;99.90
59146;DHT22;44928;53.074;6.646;2022-07-06T05:43:07;13.90;99.90
59146;DHT22;44928;53.074;6.646;2022-07-06T05:45:33;13.90;99.90
59146;DHT22;44928;53.074;6.646;2022-07-06T05:47:59;13.90;99.90
59146;DHT22;44928;53.074;6.646;2022-07-06T05:50:43;13.90;99.90
59146;DHT22;44928;53.074;6.646;2022-07-06T05:53:08;14.00;99.90
59146;DHT22;44928;53.074;6.646;2022-07-06T05:55:34;14.00;99.90
59146;DHT22;44928;53.074;6.646;2022-07-06T05:58:00;13.90;99.90
59146;DHT22;44928;53.074;6.646;2022-07-06T06:00:27;13.70;99.90
59146;DHT22;44928;53.074;6.646;2022-07-06T06:02:53;13.70;99.90
59146;DHT22;44928;53.074;6.646;2022-07-06T06:05:19;13.60;99.90
59146;DHT22;44928;53.074;6.646;2022-07-06T06:07:45;13.60;99.90
59146;DHT22;44928;53.074;6.646;2022-07-06T06:10:17;13.60;99.90
59146;DHT22;44928;53.074;6.646;2022-07-06T06:12:44;13.60;99.90
59146;DHT22;44928;53.074;6.646;2022-07-06T06:15:11;13.60;99.90
59146;DHT22;44928;53.074;6.646;2022-07-06T06:17:38;13.70;99.90
59146;DHT22;44928;53.074;6.646;2022-07-06T06:20:06;13.80;99.90
59146;DHT22;44928;53.074;6.646;2022-07-06T06:22:47;13.90;99.90
59146;DHT22;44928;53.074;6.646;2022-07-06T06:25:18;13.90;99.90
59146;DHT22;44928;53.074;6.646;2022-07-06T06:27:44;13.90;99.90
59146;DHT22;44928;53.074;6.646;2022-07-06T06:30:11;14.00;99.90
59146;DHT22;44928;53.074;6.646;2022-07-06T06:32:37;14.10;99.90
59146;DHT22;44928;53.074;6.646;2022-07-06T06:35:04;14.10;99.90
59146;DHT22;44928;53.074;6.646;2022-07-06T06:37:30;14.20;99.90
59146;DHT22;44928;53.074;6.646;2022-07-06T06:39:55;14.20;99.90
59146;DHT22;44928;53.074;6.646;2022-07-06T06:42:21;14.30;99.90
59146;DHT22;44928;53.074;6.646;2022-07-06T06:44:47;14.30;99.90
59146;DHT22;44928;53.074;6.646;2022-07-06T06:47:13;14.30;99.90
59146;DHT22;44928;53.074;6.646;2022-07-06T06:49:38;14.40;99.90
59146;DHT22;44928;53.074;6.646;2022-07-06T06:52:04;14.40;99.90
59146;DHT22;44928;53.074;6.646;2022-07-06T06:54:30;14.40;99.90
59146;DHT22;44928;53.074;6.646;2022-07-06T06:56:55;14.50;99.90
59146;DHT22;44928;53.074;6.646;2022-07-06T06:59:21;14.50;99.90
59146;DHT22;44928;53.074;6.646;2022-07-06T07:01:47;14.50;99.90
59146;DHT22;44928;53.074;6.646;2022-07-06T07:04:13;14.50;99.90
59146;DHT22;44928;53.074;6.646;2022-07-06T07:06:39;14.60;99.90
59146;DHT22;44928;53.074;6.646;2022-07-06T07:09:05;14.60;99.90
59146;DHT22;44928;53.074;6.646;2022-07-06T07:11:31;14.60;99.90
59146;DHT22;44928;53.074;6.646;2022-07-06T07:13:57;14.60;99.90
59146;DHT22;44928;53.074;6.646;2022-07-06T07:16:22;14.70;99.90
59146;DHT22;44928;53.074;6.646;2022-07-06T07:18:50;14.70;99.90
59146;DHT22;44928;53.074;6.646;2022-07-06T07:21:16;14.80;99.90
59146;DHT22;44928;53.074;6.646;2022-07-06T07:23:42;14.80;99.90
59146;DHT22;44928;53.074;6.646;2022-07-06T07:26:08;14.90;99.90
59146;DHT22;44928;53.074;6.646;2022-07-06T07:28:34;14.90;99.90
59146;DHT22;44928;53.074;6.646;2022-07-06T07:31:00;15.10;99.90
59146;DHT22;44928;53.074;6.646;2022-07-06T07:33:25;15.20;99.90
59146;DHT22;44928;53.074;6.646;2022-07-06T07:35:51;15.30;99.90
59146;DHT22;44928;53.074;6.646;2022-07-06T07:38:17;15.40;99.90
59146;DHT22;44928;53.074;6.646;2022-07-06T07:40:42;15.50;99.90
59146;DHT22;44928;53.074;6.646;2022-07-06T07:43:08;15.50;99.90
59146;DHT22;44928;53.074;6.646;2022-07-06T07:45:34;15.50;99.90
59146;DHT22;44928;53.074;6.646;2022-07-06T07:48:00;15.60;99.90
59146;DHT22;44928;53.074;6.646;2022-07-06T07:50:25;15.60;99.90
59146;DHT22;44928;53.074;6.646;2022-07-06T07:52:52;15.60;99.90
59146;DHT22;44928;53.074;6.646;2022-07-06T07:55:18;15.70;99.90
59146;DHT22;44928;53.074;6.646;2022-07-06T07:57:44;15.70;99.90
59146;DHT22;44928;53.074;6.646;2022-07-06T08:00:10;15.80;99.90
59146;DHT22;44928;53.074;6.646;2022-07-06T08:02:36;15.90;99.90
59146;DHT22;44928;53.074;6.646;2022-07-06T08:05:02;16.00;99.90
59146;DHT22;44928;53.074;6.646;2022-07-06T08:07:28;16.10;99.90
59146;DHT22;44928;53.074;6.646;2022-07-06T08:09:54;16.20;99.90
59146;DHT22;44928;53.074;6.646;2022-07-06T08:12:20;16.30;99.90
59146;DHT22;44928;53.074;6.646;2022-07-06T08:14:45;16.30;99.90
59146;DHT22;44928;53.074;6.646;2022-07-06T08:17:11;16.30;99.90
59146;DHT22;44928;53.074;6.646;2022-07-06T08:19:37;16.40;99.90
59146;DHT22;44928;53.074;6.646;2022-07-06T08:22:03;16.40;99.70
59146;DHT22;44928;53.074;6.646;2022-07-06T08:24:36;16.40;98.40
59146;DHT22;44928;53.074;6.646;2022-07-06T08:27:02;16.30;96.00
59146;DHT22;44928;53.074;6.646;2022-07-06T08:29:29;16.20;97.20
59146;DHT22;44928;53.074;6.646;2022-07-06T08:31:55;16.20;97.80
59146;DHT22;44928;53.074;6.646;2022-07-06T08:34:22;16.30;95.80
59146;DHT22;44928;53.074;6.646;2022-07-06T08:36:48;16.30;97.10
59146;DHT22;44928;53.074;6.646;2022-07-06T08:39:13;16.40;99.00
59146;DHT22;44928;53.074;6.646;2022-07-06T08:41:42;16.40;99.90
59146;DHT22;44928;53.074;6.646;2022-07-06T08:44:10;16.50;99.90
59146;DHT22;44928;53.074;6.646;2022-07-06T08:46:40;16.60;99.90
59146;DHT22;44928;53.074;6.646;2022-07-06T08:49:07;16.70;95.10
59146;DHT22;44928;53.074;6.646;2022-07-06T08:51:35;16.70;94.50
59146;DHT22;44928;53.074;6.646;2022-07-06T08:54:02;16.80;90.90
59146;DHT22;44928;53.074;6.646;2022-07-06T08:56:28;16.90;87.30
59146;DHT22;44928;53.074;6.646;2022-07-06T08:58:54;16.90;90.30
59146;DHT22;44928;53.074;6.646;2022-07-06T09:01:21;17.00;92.60
59146;DHT22;44928;53.074;6.646;2022-07-06T09:03:49;17.00;92.50
59146;DHT22;44928;53.074;6.646;2022-07-06T09:06:25;17.00;92.70
59146;DHT22;44928;53.074;6.646;2022-07-06T09:08:55;17.10;93.30
59146;DHT22;44928;53.074;6.646;2022-07-06T09:11:22;17.00;92.00
59146;DHT22;44928;53.074;6.646;2022-07-06T09:13:50;17.10;91.70
59146;DHT22;44928;53.074;6.646;2022-07-06T09:16:16;17.20;92.70
59146;DHT22;44928;53.074;6.646;2022-07-06T09:18:46;17.30;94.50
59146;DHT22;44928;53.074;6.646;2022-07-06T09:21:22;17.40;94.40
59146;DHT22;44928;53.074;6.646;2022-07-06T09:23:57;17.40;93.20
59146;DHT22;44928;53.074;6.646;2022-07-06T09:26:24;17.40;93.30
59146;DHT22;44928;53.074;6.646;2022-07-06T09:28:51;17.30;93.90
59146;DHT22;44928;53.074;6.646;2022-07-06T09:31:17;17.20;93.50
59146;DHT22;44928;53.074;6.646;2022-07-06T09:34:00;17.20;91.90
59146;DHT22;44928;53.074;6.646;2022-07-06T09:36:47;17.10;92.00
59146;DHT22;44928;53.074;6.646;2022-07-06T09:39:25;17.00;92.40
59146;DHT22;44928;53.074;6.646;2022-07-06T09:41:53;16.90;93.40
59146;DHT22;44928;53.074;6.646;2022-07-06T09:44:25;16.90;95.20
59146;DHT22;44928;53.074;6.646;2022-07-06T09:46:52;16.90;96.50
59146;DHT22;44928;53.074;6.646;2022-07-06T09:49:20;16.90;97.00
59146;DHT22;44928;53.074;6.646;2022-07-06T09:51:57;17.00;97.60
59146;DHT22;44928;53.074;6.646;2022-07-06T09:54:23;17.40;94.00
59146;DHT22;44928;53.074;6.646;2022-07-06T09:56:51;17.70;93.30
59146;DHT22;44928;53.074;6.646;2022-07-06T09:59:23;17.80;90.80
59146;DHT22;44928;53.074;6.646;2022-07-06T10:01:54;17.90;91.40
59146;DHT22;44928;53.074;6.646;2022-07-06T10:04:21;17.90;92.30
59146;DHT22;44928;53.074;6.646;2022-07-06T10:06:48;18.00;93.20
59146;DHT22;44928;53.074;6.646;2022-07-06T10:09:14;18.00;93.20
59146;DHT22;44928;53.074;6.646;2022-07-06T10:11:44;18.10;90.90
59146;DHT22;44928;53.074;6.646;2022-07-06T10:14:12;18.10;90.70
59146;DHT22;44928;53.074;6.646;2022-07-06T10:16:40;18.10;90.20
59146;DHT22;44928;53.074;6.646;2022-07-06T10:19:08;18.00;91.20
59146;DHT22;44928;53.074;6.646;2022-07-06T10:21:36;18.00;92.30
59146;DHT22;44928;53.074;6.646;2022-07-06T10:24:04;18.00;94.40
59146;DHT22;44928;53.074;6.646;2022-07-06T10:26:31;18.00;93.90
59146;DHT22;44928;53.074;6.646;2022-07-06T10:28:58;18.00;93.40
59146;DHT22;44928;53.074;6.646;2022-07-06T10:31:25;18.10;91.50
59146;DHT22;44928;53.074;6.646;2022-07-06T10:33:52;18.30;90.80
59146;DHT22;44928;53.074;6.646;2022-07-06T10:36:18;18.50;90.70
59146;DHT22;44928;53.074;6.646;2022-07-06T10:38:49;18.80;88.70
59146;DHT22;44928;53.074;6.646;2022-07-06T10:41:16;19.10;89.70
59146;DHT22;44928;53.074;6.646;2022-07-06T10:43:43;19.20;80.40
59146;DHT22;44928;53.074;6.646;2022-07-06T10:46:16;19.30;79.00
59146;DHT22;44928;53.074;6.646;2022-07-06T10:48:47;19.30;78.20
59146;DHT22;44928;53.074;6.646;2022-07-06T10:51:26;19.20;80.80
59146;DHT22;44928;53.074;6.646;2022-07-06T10:53:57;19.10;78.50
59146;DHT22;44928;53.074;6.646;2022-07-06T10:56:40;18.90;80.80
59146;DHT22;44928;53.074;6.646;2022-07-06T10:59:29;18.90;83.50
59146;DHT22;44928;53.074;6.646;2022-07-06T11:02:15;19.10;84.00
59146;DHT22;44928;53.074;6.646;2022-07-06T11:04:50;19.50;78.80
59146;DHT22;44928;53.074;6.646;2022-07-06T11:07:17;19.60;77.00
59146;DHT22;44928;53.074;6.646;2022-07-06T11:09:57;19.60;72.20
59146;DHT22;44928;53.074;6.646;2022-07-06T11:12:24;19.50;72.40
59146;DHT22;44928;53.074;6.646;2022-07-06T11:14:51;19.30;74.70
59146;DHT22;44928;53.074;6.646;2022-07-06T11:17:17;19.40;77.00
59146;DHT22;44928;53.074;6.646;2022-07-06T11:19:56;19.60;77.20
59146;DHT22;44928;53.074;6.646;2022-07-06T11:22:23;20.00;76.70
59146;DHT22;44928;53.074;6.646;2022-07-06T11:24:51;20.30;73.90
59146;DHT22;44928;53.074;6.646;2022-07-06T11:27:18;20.50;72.20
59146;DHT22;44928;53.074;6.646;2022-07-06T11:29:44;20.70;71.20
59146;DHT22;44928;53.074;6.646;2022-07-06T11:32:11;20.60;67.70
59146;DHT22;44928;53.074;6.646;2022-07-06T11:34:43;20.70;70.30
59146;DHT22;44928;53.074;6.646;2022-07-06T11:37:11;20.80;70.50
59146;DHT22;44928;53.074;6.646;2022-07-06T11:39:42;20.70;68.30
59146;DHT22;44928;53.074;6.646;2022-07-06T11:42:08;20.40;67.20
59146;DHT22;44928;53.074;6.646;2022-07-06T11:44:35;20.10;70.00
59146;DHT22;44928;53.074;6.646;2022-07-06T11:47:02;19.90;71.20
59146;DHT22;44928;53.074;6.646;2022-07-06T11:49:30;19.80;72.20
59146;DHT22;44928;53.074;6.646;2022-07-06T11:51:56;19.70;74.40
59146;DHT22;44928;53.074;6.646;2022-07-06T11:54:23;19.80;75.00
59146;DHT22;44928;53.074;6.646;2022-07-06T11:56:59;19.80;74.30
59146;DHT22;44928;53.074;6.646;2022-07-06T11:59:35;19.90;75.70
59146;DHT22;44928;53.074;6.646;2022-07-06T12:02:06;20.00;74.70
59146;DHT22;44928;53.074;6.646;2022-07-06T12:04:46;20.00;75.60
59146;DHT22;44928;53.074;6.646;2022-07-06T12:07:14;20.40;74.70
59146;DHT22;44928;53.074;6.646;2022-07-06T12:09:42;20.70;70.90
59146;DHT22;44928;53.074;6.646;2022-07-06T12:12:09;20.80;68.80
59146;DHT22;44928;53.074;6.646;2022-07-06T12:14:36;21.00;66.90
59146;DHT22;44928;53.074;6.646;2022-07-06T12:17:10;21.20;66.50
59146;DHT22;44928;53.074;6.646;2022-07-06T12:19:37;21.10;65.60
59146;DHT22;44928;53.074;6.646;2022-07-06T12:22:04;20.90;64.80
59146;DHT22;44928;53.074;6.646;2022-07-06T12:24:31;20.70;66.30
59146;DHT22;44928;53.074;6.646;2022-07-06T12:26:58;20.70;68.50
59146;DHT22;44928;53.074;6.646;2022-07-06T12:29:25;20.70;68.10
59146;DHT22;44928;53.074;6.646;2022-07-06T12:31:55;20.50;64.90
59146;DHT22;44928;53.074;6.646;2022-07-06T12:34:22;20.40;64.10
59146;DHT22;44928;53.074;6.646;2022-07-06T12:39:17;20.30;66.40
59146;DHT22;44928;53.074;6.646;2022-07-06T12:42:21;20.20;66.70
59146;DHT22;44928;53.074;6.646;2022-07-06T12:44:45;20.20;66.20
59146;DHT22;44928;53.074;6.646;2022-07-06T12:47:12;20.30;67.40
59146;DHT22;44928;53.074;6.646;2022-07-06T12:49:39;20.30;68.20
59146;DHT22;44928;53.074;6.646;2022-07-06T12:52:11;20.30;67.60
59146;DHT22;44928;53.074;6.646;2022-07-06T12:54:47;20.40;69.20
59146;DHT22;44928;53.074;6.646;2022-07-06T12:59:54;20.50;66.40
59146;DHT22;44928;53.074;6.646;2022-07-06T13:07:28;20.40;68.40
59146;DHT22;44928;53.074;6.646;2022-07-06T13:09:55;20.30;67.30
59146;DHT22;44928;53.074;6.646;2022-07-06T13:12:21;20.30;66.80
59146;DHT22;44928;53.074;6.646;2022-07-06T13:14:48;20.10;66.90
59146;DHT22;44928;53.074;6.646;2022-07-06T13:17:14;20.00;66.50
59146;DHT22;44928;53.074;6.646;2022-07-06T13:19:40;19.90;66.20
59146;DHT22;44928;53.074;6.646;2022-07-06T13:22:06;19.80;66.10
59146;DHT22;44928;53.074;6.646;2022-07-06T13:24:32;19.70;66.00
59146;DHT22;44928;53.074;6.646;2022-07-06T13:26:58;19.60;66.80
59146;DHT22;44928;53.074;6.646;2022-07-06T13:29:24;19.50;67.70
59146;DHT22;44928;53.074;6.646;2022-07-06T13:31:50;19.50;68.40
59146;DHT22;44928;53.074;6.646;2022-07-06T13:34:16;19.50;68.80
59146;DHT22;44928;53.074;6.646;2022-07-06T13:36:42;19.50;69.60
59146;DHT22;44928;53.074;6.646;2022-07-06T13:39:08;19.60;70.10
59146;DHT22;44928;53.074;6.646;2022-07-06T13:41:35;19.60;70.10
59146;DHT22;44928;53.074;6.646;2022-07-06T13:44:01;19.60;70.10
59146;DHT22;44928;53.074;6.646;2022-07-06T13:46:28;19.60;71.00
59146;DHT22;44928;53.074;6.646;2022-07-06T13:48:54;19.60;71.80
59146;DHT22;44928;53.074;6.646;2022-07-06T13:51:22;19.60;70.90
59146;DHT22;44928;53.074;6.646;2022-07-06T13:53:47;19.40;70.90
59146;DHT22;44928;53.074;6.646;2022-07-06T13:56:13;19.40;71.40
59146;DHT22;44928;53.074;6.646;2022-07-06T13:58:39;19.40;72.20
59146;DHT22;44928;53.074;6.646;2022-07-06T14:01:05;19.30;72.90
59146;DHT22;44928;53.074;6.646;2022-07-06T14:03:31;19.30;73.10
59146;DHT22;44928;53.074;6.646;2022-07-06T14:06:00;19.30;72.30
59146;DHT22;44928;53.074;6.646;2022-07-06T14:08:27;19.20;71.40
59146;DHT22;44928;53.074;6.646;2022-07-06T14:10:54;19.20;72.60
59146;DHT22;44928;53.074;6.646;2022-07-06T14:13:21;19.20;73.60
59146;DHT22;44928;53.074;6.646;2022-07-06T14:15:47;19.20;73.90
59146;DHT22;44928;53.074;6.646;2022-07-06T14:18:14;19.30;73.90
59146;DHT22;44928;53.074;6.646;2022-07-06T14:20:40;19.30;73.50
59146;DHT22;44928;53.074;6.646;2022-07-06T14:23:07;19.30;74.50
59146;DHT22;44928;53.074;6.646;2022-07-06T14:25:33;19.30;73.50
59146;DHT22;44928;53.074;6.646;2022-07-06T14:27:58;19.20;72.30
59146;DHT22;44928;53.074;6.646;2022-07-06T14:30:25;19.20;71.50
59146;DHT22;44928;53.074;6.646;2022-07-06T14:32:51;19.10;72.00
59146;DHT22;44928;53.074;6.646;2022-07-06T14:35:16;19.00;72.50
59146;DHT22;44928;53.074;6.646;2022-07-06T14:37:42;19.00;73.10
59146;DHT22;44928;53.074;6.646;2022-07-06T14:40:08;19.00;73.90
59146;DHT22;44928;53.074;6.646;2022-07-06T14:42:34;18.90;74.80
59146;DHT22;44928;53.074;6.646;2022-07-06T14:45:00;18.90;75.00
59146;DHT22;44928;53.074;6.646;2022-07-06T14:47:26;18.90;75.20
59146;DHT22;44928;53.074;6.646;2022-07-06T14:49:52;18.90;75.20
59146;DHT22;44928;53.074;6.646;2022-07-06T14:52:18;18.80;75.80
59146;DHT22;44928;53.074;6.646;2022-07-06T14:54:44;18.70;76.10
59146;DHT22;44928;53.074;6.646;2022-07-06T14:57:10;18.70;77.00
59146;DHT22;44928;53.074;6.646;2022-07-06T14:59:36;18.60;77.90
59146;DHT22;44928;53.074;6.646;2022-07-06T15:02:02;18.60;78.80
59146;DHT22;44928;53.074;6.646;2022-07-06T15:04:28;18.70;79.90
59146;DHT22;44928;53.074;6.646;2022-07-06T15:06:54;18.70;80.20
59146;DHT22;44928;53.074;6.646;2022-07-06T15:09:20;18.70;80.50
59146;DHT22;44928;53.074;6.646;2022-07-06T15:11:45;18.70;80.50
59146;DHT22;44928;53.074;6.646;2022-07-06T15:14:12;18.70;81.60
59146;DHT22;44928;53.074;6.646;2022-07-06T15:16:38;18.70;80.70
59146;DHT22;44928;53.074;6.646;2022-07-06T15:19:04;18.60;82.00
59146;DHT22;44928;53.074;6.646;2022-07-06T15:21:30;18.50;83.60
59146;DHT22;44928;53.074;6.646;2022-07-06T15:23:56;18.40;85.90
59146;DHT22;44928;53.074;6.646;2022-07-06T15:26:22;18.20;89.40
59146;DHT22;44928;53.074;6.646;2022-07-06T15:28:50;18.00;91.80
59146;DHT22;44928;53.074;6.646;2022-07-06T15:31:16;17.80;93.70
59146;DHT22;44928;53.074;6.646;2022-07-06T15:33:42;17.70;94.10
59146;DHT22;44928;53.074;6.646;2022-07-06T15:36:08;17.80;94.20
59146;DHT22;44928;53.074;6.646;2022-07-06T15:38:33;17.70;94.50
59146;DHT22;44928;53.074;6.646;2022-07-06T15:41:02;17.80;94.70